createdAt,value
2018-05-31T00:00:02.033Z,21.67
2018-05-31T00:01:01.084Z,21.67
2018-05-31T00:02:01.074Z,21.65
2018-05-31T00:03:01.081Z,21.64
2018-05-31T00:04:01.107Z,21.65
2018-05-31T00:05:01.071Z,21.80
2018-05-31T00:06:01.535Z,21.74
2018-05-31T00:07:13.445Z,21.82
2018-05-31T00:08:02.146Z,21.83
2018-05-31T00:09:02.989Z,21.82
2018-05-31T00:10:01.231Z,21.96
2018-05-31T00:11:01.119Z,21.91
2018-05-31T00:12:02.946Z,21.96
2018-05-31T00:13:02.646Z,21.90
2018-05-31T00:14:01.024Z,21.90
2018-05-31T00:15:00.994Z,21.99
2018-05-31T00:16:00.986Z,21.92
2018-05-31T00:17:00.992Z,22.06
2018-05-31T00:18:01.014Z,21.92
2018-05-31T00:19:01.004Z,22.00
2018-05-31T00:20:00.979Z,22.03
2018-05-31T00:21:00.960Z,22.03
2018-05-31T00:22:00.964Z,22.03
2018-05-31T00:23:00.964Z,22.12
2018-05-31T00:24:00.946Z,22.06
2018-05-31T00:25:00.945Z,22.14
2018-05-31T00:26:00.940Z,22.02
2018-05-31T00:27:00.931Z,22.12
2018-05-31T00:28:00.957Z,22.15
2018-05-31T00:29:01.065Z,22.21
2018-05-31T00:30:00.917Z,22.18
2018-05-31T00:31:00.931Z,22.22
2018-05-31T00:32:00.908Z,22.27
2018-05-31T00:33:00.894Z,22.24
2018-05-31T00:34:00.901Z,22.37
2018-05-31T00:35:00.932Z,22.37
2018-05-31T00:36:00.893Z,22.35
2018-05-31T00:37:00.873Z,22.35
2018-05-31T00:38:00.867Z,22.37
2018-05-31T00:39:00.862Z,22.42
2018-05-31T00:40:00.892Z,22.37
2018-05-31T00:41:00.860Z,22.36
2018-05-31T00:42:00.851Z,22.35
2018-05-31T00:43:00.850Z,22.43
2018-05-31T00:44:00.844Z,22.47
2018-05-31T00:45:00.976Z,22.42
2018-05-31T00:46:00.834Z,22.39
2018-05-31T00:47:00.822Z,22.33
2018-05-31T00:48:00.823Z,22.43
2018-05-31T00:49:00.824Z,22.47
2018-05-31T00:50:00.850Z,22.47
2018-05-31T00:51:00.806Z,22.42
2018-05-31T00:52:00.797Z,22.52
2018-05-31T00:53:00.792Z,22.43
2018-05-31T00:54:00.793Z,22.40
2018-05-31T00:55:00.783Z,22.33
2018-05-31T00:56:00.846Z,22.43
2018-05-31T00:57:00.769Z,22.51
2018-05-31T00:58:00.770Z,22.43
2018-05-31T00:59:00.758Z,22.51
2018-05-31T01:00:02.525Z,22.40
2018-05-31T01:01:00.747Z,22.49
2018-05-31T01:02:00.778Z,22.47
2018-05-31T01:03:00.737Z,22.42
2018-05-31T01:04:00.734Z,22.47
2018-05-31T01:05:00.746Z,22.51
2018-05-31T01:06:00.727Z,22.42
2018-05-31T01:07:00.758Z,22.36
2018-05-31T01:08:00.712Z,22.42
2018-05-31T01:09:00.743Z,22.46
2018-05-31T01:10:00.704Z,22.47
2018-05-31T01:11:00.707Z,22.52
2018-05-31T01:12:00.714Z,22.52
2018-05-31T01:13:01.113Z,22.51
2018-05-31T01:14:00.697Z,22.58
2018-05-31T01:15:00.682Z,22.54
2018-05-31T01:16:00.672Z,22.42
2018-05-31T01:17:00.671Z,22.42
2018-05-31T01:18:00.659Z,22.54
2018-05-31T01:19:00.708Z,22.49
2018-05-31T01:20:00.646Z,22.45
2018-05-31T01:21:00.657Z,22.40
2018-05-31T01:22:00.636Z,22.40
2018-05-31T01:23:00.633Z,22.36
2018-05-31T01:24:00.633Z,22.45
2018-05-31T01:25:00.640Z,22.35
2018-05-31T01:26:00.635Z,22.39
2018-05-31T01:27:00.619Z,22.43
2018-05-31T01:28:00.611Z,22.43
2018-05-31T01:29:00.605Z,22.46
2018-05-31T01:30:00.621Z,22.39
2018-05-31T01:31:00.579Z,22.37
2018-05-31T01:32:00.615Z,22.43
2018-05-31T01:33:00.584Z,22.42
2018-05-31T01:34:00.576Z,22.36
2018-05-31T01:35:00.636Z,22.28
2018-05-31T01:36:00.573Z,22.24
2018-05-31T01:37:00.552Z,22.28
2018-05-31T01:38:00.574Z,22.25
2018-05-31T01:39:00.561Z,22.17
2018-05-31T01:40:00.552Z,22.15
2018-05-31T01:41:00.604Z,22.17
2018-05-31T01:42:00.536Z,22.05
2018-05-31T01:43:00.530Z,21.96
2018-05-31T01:44:00.525Z,21.94
2018-05-31T01:45:00.517Z,21.96
2018-05-31T01:46:00.508Z,21.96
2018-05-31T01:47:00.526Z,22.02
2018-05-31T01:48:00.511Z,21.86
2018-05-31T01:49:00.511Z,21.75
2018-05-31T01:50:00.490Z,21.67
2018-05-31T01:51:00.630Z,21.64
2018-05-31T01:52:00.488Z,21.59
2018-05-31T01:53:00.477Z,21.53
2018-05-31T01:54:00.480Z,21.58
2018-05-31T01:55:00.460Z,21.46
2018-05-31T01:56:00.464Z,21.44
2018-05-31T01:57:00.463Z,21.34
2018-05-31T01:58:00.451Z,21.37
2018-05-31T01:59:00.474Z,21.27
2018-05-31T02:00:00.452Z,21.17
2018-05-31T02:01:00.438Z,21.16
2018-05-31T02:02:00.424Z,21.12
2018-05-31T02:03:00.469Z,21.24
2018-05-31T02:04:00.428Z,21.22
2018-05-31T02:05:00.411Z,21.14
2018-05-31T02:06:00.400Z,21.16
2018-05-31T02:07:00.407Z,21.10
2018-05-31T02:08:00.439Z,20.99
2018-05-31T02:09:00.399Z,20.98
2018-05-31T02:10:00.381Z,20.77
2018-05-31T02:11:00.383Z,20.72
2018-05-31T02:12:00.360Z,20.64
2018-05-31T02:13:00.367Z,20.62
2018-05-31T02:14:00.375Z,20.73
2018-05-31T02:15:00.356Z,20.67
2018-05-31T02:16:00.353Z,20.72
2018-05-31T02:17:00.347Z,20.70
2018-05-31T02:18:00.338Z,20.72
2018-05-31T02:19:00.362Z,20.72
2018-05-31T02:20:00.380Z,20.67
2018-05-31T02:21:00.323Z,20.50
2018-05-31T02:22:00.304Z,20.59
2018-05-31T02:23:00.326Z,20.54
2018-05-31T02:24:00.300Z,20.67
2018-05-31T02:25:00.299Z,20.64
2018-05-31T02:26:00.427Z,20.72
2018-05-31T02:27:00.284Z,20.72
2018-05-31T02:28:00.283Z,20.73
2018-05-31T02:29:00.279Z,20.73
2018-05-31T02:30:00.258Z,20.80
2018-05-31T02:31:00.276Z,20.77
2018-05-31T02:32:00.268Z,20.67
2018-05-31T02:33:00.262Z,20.74
2018-05-31T02:34:00.231Z,20.72
2018-05-31T02:35:00.245Z,20.70
2018-05-31T02:36:00.248Z,20.80
2018-05-31T02:37:00.227Z,20.80
2018-05-31T02:38:00.211Z,20.73
2018-05-31T02:39:00.241Z,20.74
2018-05-31T02:40:00.206Z,20.77
2018-05-31T02:41:00.210Z,20.69
2018-05-31T02:42:00.191Z,20.74
2018-05-31T02:43:00.223Z,20.66
2018-05-31T02:44:00.179Z,20.62
2018-05-31T02:45:00.231Z,20.69
2018-05-31T02:46:00.170Z,20.74
2018-05-31T02:47:00.172Z,20.69
2018-05-31T02:48:00.516Z,20.66
2018-05-31T02:49:00.148Z,20.64
2018-05-31T02:50:00.152Z,20.67
2018-05-31T02:51:00.139Z,20.58
2018-05-31T02:52:00.136Z,20.47
2018-05-31T02:53:00.125Z,20.47
2018-05-31T02:54:00.145Z,20.50
2018-05-31T02:55:00.113Z,20.41
2018-05-31T02:56:00.113Z,20.33
2018-05-31T02:57:00.111Z,20.28
2018-05-31T02:58:00.123Z,20.21
2018-05-31T02:59:00.087Z,20.20
2018-05-31T03:00:00.084Z,20.17
2018-05-31T03:01:00.083Z,20.08
2018-05-31T03:02:00.062Z,20.13
2018-05-31T03:03:00.068Z,20.05
2018-05-31T03:04:00.062Z,20.18
2018-05-31T03:05:00.069Z,20.23
2018-05-31T03:06:00.056Z,20.31
2018-05-31T03:07:00.091Z,20.32
2018-05-31T03:08:00.032Z,20.36
2018-05-31T03:09:00.052Z,20.35
2018-05-31T03:10:00.019Z,20.47
2018-05-31T03:11:00.016Z,20.35
2018-05-31T03:12:00.008Z,20.54
2018-05-31T03:13:00.006Z,20.52
2018-05-31T03:14:00.042Z,20.66
2018-05-31T03:15:00.033Z,20.62
2018-05-31T03:15:59.989Z,20.58
2018-05-31T03:16:59.972Z,20.59
2018-05-31T03:18:00.011Z,20.69
2018-05-31T03:19:00.202Z,20.58
2018-05-31T03:19:59.974Z,20.59
2018-05-31T03:20:59.963Z,20.64
2018-05-31T03:21:59.938Z,20.58
2018-05-31T03:22:59.945Z,20.54
2018-05-31T03:23:59.950Z,20.54
2018-05-31T03:24:59.960Z,20.58
2018-05-31T03:25:59.920Z,20.66
2018-05-31T03:26:59.917Z,20.48
2018-05-31T03:27:59.895Z,20.51
2018-05-31T03:28:59.903Z,20.48
2018-05-31T03:29:59.920Z,20.41
2018-05-31T03:30:59.885Z,20.39
2018-05-31T03:31:59.878Z,20.39
2018-05-31T03:32:59.884Z,20.48
2018-05-31T03:33:59.872Z,20.52
2018-05-31T03:34:59.887Z,20.50
2018-05-31T03:35:59.862Z,20.57
2018-05-31T03:36:59.856Z,20.48
2018-05-31T03:38:00.066Z,20.54
2018-05-31T03:38:59.832Z,20.51
2018-05-31T03:40:00.198Z,20.62
2018-05-31T03:40:59.842Z,20.62
2018-05-31T03:41:59.815Z,20.62
2018-05-31T03:42:59.818Z,20.55
2018-05-31T03:43:59.821Z,20.57
2018-05-31T03:44:59.797Z,20.57
2018-05-31T03:45:59.839Z,20.61
2018-05-31T03:46:59.782Z,20.57
2018-05-31T03:47:59.780Z,20.51
2018-05-31T03:48:59.771Z,20.43
2018-05-31T03:49:59.771Z,20.42
2018-05-31T03:50:59.797Z,20.43
2018-05-31T03:51:59.758Z,20.48
2018-05-31T03:52:59.775Z,20.48
2018-05-31T03:53:59.730Z,20.52
2018-05-31T03:54:59.740Z,20.61
2018-05-31T03:55:59.760Z,20.62
2018-05-31T03:56:59.712Z,20.57
2018-05-31T03:57:59.719Z,20.43
2018-05-31T03:58:59.718Z,20.41
2018-05-31T03:59:59.752Z,20.42
2018-05-31T04:00:59.700Z,20.39
2018-05-31T04:01:59.698Z,20.42
2018-05-31T04:02:59.691Z,20.39
2018-05-31T04:03:59.678Z,20.29
2018-05-31T04:04:59.678Z,20.23
2018-05-31T04:05:59.662Z,20.26
2018-05-31T04:06:59.681Z,20.16
2018-05-31T04:07:59.651Z,20.11
2018-05-31T04:08:59.647Z,20.16
2018-05-31T04:09:59.805Z,20.16
2018-05-31T04:10:59.637Z,20.32
2018-05-31T04:11:59.632Z,20.24
2018-05-31T04:12:59.663Z,20.36
2018-05-31T04:13:59.622Z,20.41
2018-05-31T04:14:59.613Z,20.39
2018-05-31T04:15:59.636Z,20.38
2018-05-31T04:16:59.608Z,20.47
2018-05-31T04:17:59.582Z,20.50
2018-05-31T04:18:59.580Z,20.48
2018-05-31T04:19:59.580Z,20.41
2018-05-31T04:20:59.564Z,20.52
2018-05-31T04:21:59.594Z,20.51
2018-05-31T04:22:59.734Z,20.48
2018-05-31T04:23:59.552Z,20.55
2018-05-31T04:24:59.543Z,20.52
2018-05-31T04:25:59.543Z,20.54
2018-05-31T04:26:59.537Z,20.54
2018-05-31T04:27:59.530Z,20.51
2018-05-31T04:28:59.588Z,20.55
2018-05-31T04:29:59.516Z,20.48
2018-05-31T04:30:59.504Z,20.41
2018-05-31T04:31:59.502Z,20.41
2018-05-31T04:32:59.486Z,20.51
2018-05-31T04:33:59.490Z,20.59
2018-05-31T04:34:59.479Z,20.62
2018-05-31T04:35:59.476Z,20.61
2018-05-31T04:36:59.468Z,20.52
2018-05-31T04:37:59.462Z,20.52
2018-05-31T04:38:59.442Z,20.43
2018-05-31T04:39:59.478Z,20.39
2018-05-31T04:40:59.445Z,20.32
2018-05-31T04:41:59.426Z,20.47
2018-05-31T04:42:59.423Z,20.43
2018-05-31T04:43:59.412Z,20.42
2018-05-31T04:44:59.452Z,20.43
2018-05-31T04:45:59.409Z,20.54
2018-05-31T04:46:59.395Z,20.52
2018-05-31T04:47:59.412Z,20.58
2018-05-31T04:48:59.395Z,20.58
2018-05-31T04:49:59.399Z,20.62
2018-05-31T04:50:59.529Z,20.61
2018-05-31T04:51:59.370Z,20.64
2018-05-31T04:52:59.371Z,20.73
2018-05-31T04:53:59.389Z,20.70
2018-05-31T04:54:59.347Z,20.66
2018-05-31T04:55:59.349Z,20.61
2018-05-31T04:56:59.351Z,20.80
2018-05-31T04:57:59.340Z,20.69
2018-05-31T04:58:59.323Z,20.72
2018-05-31T04:59:59.351Z,20.88
2018-05-31T05:00:59.304Z,20.73
2018-05-31T05:01:59.384Z,20.79
2018-05-31T05:02:59.316Z,20.76
2018-05-31T05:03:59.300Z,20.73
2018-05-31T05:04:59.290Z,20.73
2018-05-31T05:05:59.281Z,20.82
2018-05-31T05:06:59.290Z,20.87
2018-05-31T05:07:59.431Z,20.97
2018-05-31T05:08:59.281Z,20.98
2018-05-31T05:09:59.253Z,21.01
2018-05-31T05:10:59.257Z,21.03
2018-05-31T05:11:59.243Z,21.04
2018-05-31T05:12:59.244Z,21.07
2018-05-31T05:13:59.245Z,21.10
2018-05-31T05:14:59.217Z,21.07
2018-05-31T05:15:59.224Z,21.09
2018-05-31T05:16:59.203Z,21.09
2018-05-31T05:17:59.216Z,21.04
2018-05-31T05:18:59.237Z,21.04
2018-05-31T05:19:59.195Z,21.03
2018-05-31T05:20:59.202Z,21.16
2018-05-31T05:21:59.180Z,21.16
2018-05-31T05:22:59.178Z,21.17
2018-05-31T05:23:59.167Z,21.25
2018-05-31T05:24:59.202Z,21.29
2018-05-31T05:25:59.185Z,21.27
2018-05-31T05:26:59.151Z,21.32
2018-05-31T05:27:59.157Z,21.38
2018-05-31T05:28:59.146Z,21.35
2018-05-31T05:29:59.135Z,21.29
2018-05-31T05:30:59.133Z,21.40
2018-05-31T05:31:59.122Z,21.38
2018-05-31T05:32:59.140Z,21.43
2018-05-31T05:33:59.110Z,21.50
2018-05-31T05:34:59.111Z,21.35
2018-05-31T05:35:59.137Z,21.52
2018-05-31T05:36:59.160Z,21.49
2018-05-31T05:37:59.099Z,21.54
2018-05-31T05:38:59.093Z,21.52
2018-05-31T05:39:59.074Z,21.50
2018-05-31T05:40:59.077Z,21.52
2018-05-31T05:41:59.081Z,21.54
2018-05-31T05:42:59.100Z,21.52
2018-05-31T05:43:59.059Z,21.49
2018-05-31T05:44:59.041Z,21.54
2018-05-31T05:45:59.045Z,21.49
2018-05-31T05:46:59.044Z,21.49
2018-05-31T05:47:59.031Z,21.50
2018-05-31T05:48:59.037Z,21.53
2018-05-31T05:49:59.700Z,21.61
2018-05-31T05:50:59.028Z,21.56
2018-05-31T05:51:59.009Z,21.58
2018-05-31T05:52:59.001Z,21.56
2018-05-31T05:53:59.029Z,21.65
2018-05-31T05:54:58.996Z,21.64
2018-05-31T05:55:58.993Z,21.62
2018-05-31T05:56:58.986Z,21.65
2018-05-31T05:57:58.981Z,21.69
2018-05-31T05:58:59.000Z,21.74
2018-05-31T05:59:58.965Z,21.69
2018-05-31T06:00:59.002Z,21.72
2018-05-31T06:01:58.947Z,21.67
2018-05-31T06:02:58.949Z,21.69
2018-05-31T06:03:58.975Z,21.69
2018-05-31T06:04:59.249Z,21.74
2018-05-31T06:05:58.949Z,21.71
2018-05-31T06:06:58.954Z,21.79
2018-05-31T06:07:58.917Z,21.72
2018-05-31T06:08:58.928Z,21.80
2018-05-31T06:09:58.931Z,21.90
2018-05-31T06:10:58.911Z,21.88
2018-05-31T06:11:58.906Z,21.88
2018-05-31T06:12:58.898Z,21.90
2018-05-31T06:13:58.895Z,21.94
2018-05-31T06:14:58.903Z,21.92
2018-05-31T06:15:58.917Z,21.91
2018-05-31T06:16:58.867Z,22.07
2018-05-31T06:17:58.980Z,21.94
2018-05-31T06:18:58.858Z,21.98
2018-05-31T06:19:58.860Z,22.06
2018-05-31T06:20:58.995Z,22.05
2018-05-31T06:21:58.891Z,22.10
2018-05-31T06:22:58.837Z,22.09
2018-05-31T06:23:58.839Z,22.14
2018-05-31T06:24:58.839Z,22.18
2018-05-31T06:25:58.828Z,22.15
2018-05-31T06:26:58.842Z,22.20
2018-05-31T06:27:58.816Z,22.25
2018-05-31T06:28:58.814Z,22.21
2018-05-31T06:29:58.808Z,22.22
2018-05-31T06:30:58.840Z,22.24
2018-05-31T06:31:58.804Z,22.37
2018-05-31T06:32:58.787Z,22.42
2018-05-31T06:33:58.784Z,22.39
2018-05-31T06:34:58.779Z,22.36
2018-05-31T06:35:58.804Z,22.37
2018-05-31T06:36:58.763Z,22.42
2018-05-31T06:37:58.764Z,22.43
2018-05-31T06:38:58.796Z,22.40
2018-05-31T06:39:58.766Z,22.47
2018-05-31T06:40:58.784Z,22.49
2018-05-31T06:41:58.751Z,22.51
2018-05-31T06:42:58.775Z,22.60
2018-05-31T06:43:58.743Z,22.49
2018-05-31T06:44:58.729Z,22.52
2018-05-31T06:45:58.763Z,22.39
2018-05-31T06:46:58.712Z,22.54
2018-05-31T06:47:58.717Z,22.60
2018-05-31T06:48:58.711Z,22.52
2018-05-31T06:49:58.716Z,22.57
2018-05-31T06:50:58.738Z,22.55
2018-05-31T06:51:58.711Z,22.60
2018-05-31T06:52:58.682Z,22.61
2018-05-31T06:53:58.689Z,22.57
2018-05-31T06:54:58.678Z,22.60
2018-05-31T06:55:59.033Z,22.62
2018-05-31T06:56:58.691Z,22.57
2018-05-31T06:57:58.663Z,22.68
2018-05-31T06:58:58.674Z,22.68
2018-05-31T06:59:58.662Z,22.64
2018-05-31T07:00:58.669Z,22.67
2018-05-31T07:01:58.647Z,22.68
2018-05-31T07:02:58.647Z,22.68
2018-05-31T07:03:58.634Z,22.64
2018-05-31T07:04:58.643Z,22.75
2018-05-31T07:05:58.634Z,22.76
2018-05-31T07:06:58.683Z,22.76
2018-05-31T07:07:58.622Z,22.85
2018-05-31T07:08:58.606Z,22.86
2018-05-31T07:09:59.090Z,22.88
2018-05-31T07:10:58.601Z,22.97
2018-05-31T07:11:58.620Z,22.91
2018-05-31T07:12:58.601Z,23.04
2018-05-31T07:13:58.632Z,23.05
2018-05-31T07:14:58.593Z,23.07
2018-05-31T07:15:58.624Z,23.12
2018-05-31T07:16:58.613Z,23.22
2018-05-31T07:17:58.580Z,23.12
2018-05-31T07:18:58.570Z,23.19
2018-05-31T07:19:58.573Z,23.22
2018-05-31T07:20:58.722Z,23.25
2018-05-31T07:21:58.552Z,23.33
2018-05-31T07:22:58.553Z,23.38
2018-05-31T07:23:58.560Z,23.31
2018-05-31T07:24:58.541Z,23.31
2018-05-31T07:25:58.550Z,23.33
2018-05-31T07:26:58.538Z,23.32
2018-05-31T07:27:58.770Z,23.35
2018-05-31T07:28:58.543Z,23.38
2018-05-31T07:29:58.524Z,23.40
2018-05-31T07:30:58.512Z,23.42
2018-05-31T07:31:58.545Z,23.48
2018-05-31T07:32:58.516Z,23.47
2018-05-31T07:33:58.512Z,23.57
2018-05-31T07:34:58.541Z,23.54
2018-05-31T07:35:58.502Z,23.53
2018-05-31T07:36:58.788Z,23.65
2018-05-31T07:37:58.491Z,23.63
2018-05-31T07:38:58.478Z,23.61
2018-05-31T07:39:58.489Z,23.78
2018-05-31T07:40:58.488Z,23.72
2018-05-31T07:41:58.468Z,23.69
2018-05-31T07:42:58.493Z,23.70
2018-05-31T07:43:58.465Z,23.70
2018-05-31T07:44:58.457Z,23.73
2018-05-31T07:45:58.446Z,23.80
2018-05-31T07:46:58.485Z,23.78
2018-05-31T07:47:58.457Z,23.87
2018-05-31T07:48:58.439Z,23.88
2018-05-31T07:49:58.437Z,23.87
2018-05-31T07:50:58.438Z,23.94
2018-05-31T07:51:58.490Z,23.93
2018-05-31T07:52:58.428Z,23.94
2018-05-31T07:53:58.469Z,23.98
2018-05-31T07:54:58.423Z,23.94
2018-05-31T07:55:58.414Z,24.03
2018-05-31T07:56:58.450Z,24.05
2018-05-31T07:57:58.442Z,24.06
2018-05-31T07:58:58.422Z,24.09
2018-05-31T07:59:58.407Z,24.15
2018-05-31T08:00:58.384Z,24.25
2018-05-31T08:01:58.404Z,24.22
2018-05-31T08:02:58.399Z,24.22
2018-05-31T08:03:58.533Z,24.21
2018-05-31T08:04:58.380Z,24.24
2018-05-31T08:05:58.393Z,24.25
2018-05-31T08:06:58.376Z,24.27
2018-05-31T08:07:58.375Z,24.24
2018-05-31T08:08:59.455Z,24.25
2018-05-31T08:09:58.413Z,24.37
2018-05-31T08:10:58.372Z,24.35
2018-05-31T08:11:58.355Z,24.34
2018-05-31T08:12:58.358Z,24.39
2018-05-31T08:13:59.287Z,24.47
2018-05-31T08:14:58.386Z,24.47
2018-05-31T08:15:58.361Z,24.49
2018-05-31T08:16:58.333Z,24.45
2018-05-31T08:17:58.325Z,24.45
2018-05-31T08:18:58.348Z,24.50
2018-05-31T08:20:02.310Z,24.52
2018-05-31T08:20:58.453Z,24.60
2018-05-31T08:21:58.308Z,24.64
2018-05-31T08:23:01.856Z,24.64
2018-05-31T08:23:58.402Z,24.64
2018-05-31T08:25:01.687Z,24.68
2018-05-31T08:25:58.470Z,24.68
2018-05-31T08:27:02.263Z,24.69
2018-05-31T08:27:58.457Z,24.65
2018-05-31T08:28:58.295Z,24.71
2018-05-31T08:29:58.326Z,24.81
2018-05-31T08:30:58.291Z,24.93
2018-05-31T08:31:58.429Z,24.90
2018-05-31T08:32:58.281Z,24.93
2018-05-31T08:33:58.281Z,24.91
2018-05-31T08:34:58.277Z,24.95
2018-05-31T08:35:58.265Z,25.00
2018-05-31T08:36:58.273Z,25.08
2018-05-31T08:37:58.271Z,25.00
2018-05-31T08:38:58.261Z,25.10
2018-05-31T08:39:58.246Z,25.14
2018-05-31T08:40:58.253Z,25.18
2018-05-31T08:41:58.257Z,25.21
2018-05-31T08:42:58.292Z,25.25
2018-05-31T08:43:58.257Z,25.28
2018-05-31T08:44:58.241Z,25.27
2018-05-31T08:45:58.245Z,25.32
2018-05-31T08:46:58.238Z,25.30
2018-05-31T08:47:58.258Z,25.36
2018-05-31T08:48:58.230Z,25.35
2018-05-31T08:49:58.221Z,25.40
2018-05-31T08:50:58.242Z,25.42
2018-05-31T08:51:58.232Z,25.46
2018-05-31T08:52:58.251Z,25.46
2018-05-31T08:53:58.250Z,25.45
2018-05-31T08:54:58.253Z,25.58
2018-05-31T08:55:58.210Z,25.58
2018-05-31T08:56:58.217Z,25.57
2018-05-31T08:57:58.225Z,25.82
2018-05-31T08:58:58.257Z,25.82
2018-05-31T08:59:58.207Z,25.90
2018-05-31T09:00:58.218Z,25.90
2018-05-31T09:01:58.203Z,25.98
2018-05-31T09:02:58.209Z,26.10
2018-05-31T09:03:58.387Z,26.20
2018-05-31T09:04:58.210Z,26.28
2018-05-31T09:05:58.207Z,26.35
2018-05-31T09:06:58.206Z,26.43
2018-05-31T09:07:58.226Z,26.43
2018-05-31T09:08:58.484Z,26.48
2018-05-31T09:09:58.195Z,26.57
2018-05-31T09:10:58.186Z,26.60
2018-05-31T09:11:58.193Z,26.76
2018-05-31T09:12:58.194Z,26.85
2018-05-31T09:13:58.178Z,26.91
2018-05-31T09:14:58.192Z,26.92
2018-05-31T09:15:58.191Z,27.04
2018-05-31T09:16:58.201Z,27.09
2018-05-31T09:17:58.815Z,27.13
2018-05-31T09:18:58.183Z,27.14
2018-05-31T09:19:58.234Z,27.29
2018-05-31T09:20:58.257Z,27.32
2018-05-31T09:21:58.243Z,27.40
2018-05-31T09:22:58.180Z,27.41
2018-05-31T09:23:58.173Z,27.47
2018-05-31T09:24:58.376Z,27.47
2018-05-31T09:25:58.181Z,27.44
2018-05-31T09:26:58.220Z,27.59
2018-05-31T09:27:58.217Z,27.60
2018-05-31T09:28:58.204Z,27.69
2018-05-31T09:29:58.192Z,27.67
2018-05-31T09:30:58.190Z,27.82
2018-05-31T09:31:58.224Z,27.78
2018-05-31T09:32:58.356Z,27.88
2018-05-31T09:33:58.196Z,28.00
2018-05-31T09:34:58.197Z,28.02
2018-05-31T09:35:58.363Z,28.06
2018-05-31T09:36:58.209Z,28.03
2018-05-31T09:37:58.401Z,28.11
2018-05-31T09:38:58.205Z,28.18
2018-05-31T09:39:58.208Z,28.19
2018-05-31T09:40:58.209Z,28.12
2018-05-31T09:41:58.223Z,28.19
2018-05-31T09:42:58.214Z,28.18
2018-05-31T09:43:58.211Z,28.18
2018-05-31T09:44:58.215Z,28.19
2018-05-31T09:45:58.225Z,28.25
2018-05-31T09:46:58.249Z,28.18
2018-05-31T09:47:58.856Z,28.31
2018-05-31T09:48:58.261Z,28.37
2018-05-31T09:49:58.260Z,28.43
2018-05-31T09:50:58.254Z,28.51
2018-05-31T09:51:58.231Z,28.62
2018-05-31T09:52:58.281Z,28.68
2018-05-31T09:53:58.250Z,28.77
2018-05-31T09:54:58.473Z,29.00
2018-05-31T09:55:58.371Z,28.92
2018-05-31T09:56:58.260Z,29.11
2018-05-31T09:57:58.267Z,29.30
2018-05-31T09:58:58.275Z,29.28
2018-05-31T09:59:58.308Z,29.37
2018-05-31T10:00:58.277Z,29.49
2018-05-31T10:01:58.288Z,29.63
2018-05-31T10:02:58.299Z,29.67
2018-05-31T10:03:58.286Z,29.85
2018-05-31T10:04:58.377Z,29.97
2018-05-31T10:05:58.298Z,30.00
2018-05-31T10:06:58.321Z,30.01
2018-05-31T10:07:58.325Z,30.17
2018-05-31T10:08:58.346Z,30.29
2018-05-31T10:09:58.329Z,30.43
2018-05-31T10:10:58.394Z,30.38
2018-05-31T10:11:58.352Z,30.58
2018-05-31T10:12:58.347Z,30.75
2018-05-31T10:13:58.366Z,30.84
2018-05-31T10:14:58.364Z,30.89
2018-05-31T10:15:58.496Z,30.94
2018-05-31T10:16:58.375Z,31.06
2018-05-31T10:17:58.386Z,31.12
2018-05-31T10:18:58.411Z,31.26
2018-05-31T10:19:58.383Z,31.26
2018-05-31T10:20:58.401Z,31.31
2018-05-31T10:21:58.419Z,31.43
2018-05-31T10:22:58.410Z,31.47
2018-05-31T10:23:58.412Z,31.48
2018-05-31T10:24:58.430Z,31.56
2018-05-31T10:25:58.453Z,31.61
2018-05-31T10:26:58.475Z,31.62
2018-05-31T10:27:58.458Z,31.76
2018-05-31T10:28:58.461Z,31.84
2018-05-31T10:29:58.462Z,32.01
2018-05-31T10:30:58.479Z,32.03
2018-05-31T10:31:58.946Z,32.21
2018-05-31T10:32:58.483Z,32.28
2018-05-31T10:33:58.491Z,32.37
2018-05-31T10:34:58.508Z,32.57
2018-05-31T10:35:58.509Z,32.50
2018-05-31T10:36:58.528Z,32.48
2018-05-31T10:37:58.561Z,32.59
2018-05-31T10:38:58.549Z,32.48
2018-05-31T10:39:58.552Z,32.28
2018-05-31T10:40:58.554Z,32.22
2018-05-31T10:41:58.567Z,32.28
2018-05-31T10:42:58.577Z,32.26
2018-05-31T10:43:58.633Z,32.29
2018-05-31T10:44:58.585Z,32.57
2018-05-31T10:45:58.591Z,32.66
2018-05-31T10:46:58.606Z,32.79
2018-05-31T10:47:58.610Z,32.94
2018-05-31T10:48:58.633Z,33.14
2018-05-31T10:49:58.683Z,33.31
2018-05-31T10:50:58.640Z,33.41
2018-05-31T10:51:58.654Z,33.47
2018-05-31T10:52:58.662Z,33.56
2018-05-31T10:53:58.674Z,33.66
2018-05-31T10:54:58.710Z,33.51
2018-05-31T10:55:58.689Z,33.53
2018-05-31T10:56:58.698Z,33.65
2018-05-31T10:57:58.711Z,33.59
2018-05-31T10:58:58.728Z,33.50
2018-05-31T10:59:58.925Z,33.37
2018-05-31T11:00:58.741Z,33.32
2018-05-31T11:01:58.730Z,33.45
2018-05-31T11:02:58.745Z,33.60
2018-05-31T11:03:58.764Z,33.84
2018-05-31T11:04:58.797Z,33.98
2018-05-31T11:05:58.778Z,34.10
2018-05-31T11:06:58.789Z,34.21
2018-05-31T11:07:58.792Z,34.25
2018-05-31T11:08:58.791Z,34.13
2018-05-31T11:09:58.818Z,34.10
2018-05-31T11:10:58.844Z,33.81
2018-05-31T11:11:58.830Z,33.60
2018-05-31T11:12:58.838Z,33.51
2018-05-31T11:13:58.849Z,33.56
2018-05-31T11:14:58.907Z,33.73
2018-05-31T11:15:58.906Z,33.95
2018-05-31T11:16:58.880Z,34.16
2018-05-31T11:17:58.897Z,34.39
2018-05-31T11:18:58.895Z,34.24
2018-05-31T11:19:58.900Z,34.03
2018-05-31T11:20:58.940Z,34.06
2018-05-31T11:21:58.932Z,33.97
2018-05-31T11:22:58.938Z,33.98
2018-05-31T11:23:58.962Z,33.94
2018-05-31T11:24:58.961Z,33.86
2018-05-31T11:25:59.327Z,33.59
2018-05-31T11:26:58.998Z,33.50
2018-05-31T11:27:58.985Z,33.41
2018-05-31T11:28:59.003Z,33.49
2018-05-31T11:29:59.020Z,33.49
2018-05-31T11:30:59.019Z,33.53
2018-05-31T11:31:59.063Z,33.72
2018-05-31T11:32:59.034Z,33.98
2018-05-31T11:33:59.044Z,34.30
2018-05-31T11:34:59.063Z,34.62
2018-05-31T11:35:59.071Z,34.80
2018-05-31T11:36:59.107Z,34.99
2018-05-31T11:37:59.089Z,35.25
2018-05-31T11:38:59.129Z,35.45
2018-05-31T11:39:59.101Z,35.68
2018-05-31T11:40:59.117Z,35.94
2018-05-31T11:41:59.172Z,36.13
2018-05-31T11:42:59.139Z,36.09
2018-05-31T11:43:59.151Z,36.08
2018-05-31T11:44:59.161Z,35.94
2018-05-31T11:45:59.182Z,35.84
2018-05-31T11:46:59.460Z,35.74
2018-05-31T11:47:59.195Z,35.78
2018-05-31T11:48:59.208Z,35.58
2018-05-31T11:49:59.233Z,35.26
2018-05-31T11:50:59.221Z,35.09
2018-05-31T11:51:59.254Z,34.80
2018-05-31T11:52:59.369Z,34.61
2018-05-31T11:53:59.246Z,34.43
2018-05-31T11:54:59.256Z,34.21
2018-05-31T11:55:59.259Z,34.13
2018-05-31T11:56:59.275Z,33.97
2018-05-31T11:57:59.528Z,33.93
2018-05-31T11:58:59.312Z,33.76
2018-05-31T11:59:59.300Z,33.60
2018-05-31T12:00:59.289Z,33.51
2018-05-31T12:01:59.300Z,33.29
2018-05-31T12:02:59.346Z,33.04
2018-05-31T12:03:59.322Z,32.69
2018-05-31T12:04:59.471Z,32.47
2018-05-31T12:05:59.338Z,32.32
2018-05-31T12:06:59.330Z,32.23
2018-05-31T12:07:59.338Z,32.13
2018-05-31T12:08:59.334Z,32.10
2018-05-31T12:09:59.473Z,31.99
2018-05-31T12:10:59.355Z,31.92
2018-05-31T12:11:59.354Z,31.88
2018-05-31T12:12:59.357Z,31.61
2018-05-31T12:13:59.361Z,31.51
2018-05-31T12:14:59.404Z,31.47
2018-05-31T12:15:59.403Z,31.29
2018-05-31T12:16:59.377Z,30.89
2018-05-31T12:17:59.379Z,30.62
2018-05-31T12:18:59.376Z,30.51
2018-05-31T12:19:59.377Z,30.20
2018-05-31T12:20:59.412Z,30.13
2018-05-31T12:21:59.402Z,29.97
2018-05-31T12:22:59.402Z,30.00
2018-05-31T12:23:59.407Z,29.94
2018-05-31T12:24:59.406Z,29.95
2018-05-31T12:25:59.425Z,29.97
2018-05-31T12:26:59.440Z,30.04
2018-05-31T12:27:59.442Z,30.08
2018-05-31T12:28:59.408Z,30.16
2018-05-31T12:29:59.410Z,30.23
2018-05-31T12:30:59.428Z,30.24
2018-05-31T12:31:59.475Z,30.27
2018-05-31T12:32:59.412Z,30.24
2018-05-31T12:33:59.414Z,30.27
2018-05-31T12:34:59.423Z,30.35
2018-05-31T12:35:59.430Z,30.26
2018-05-31T12:36:59.440Z,30.27
2018-05-31T12:37:59.467Z,30.35
2018-05-31T12:38:59.446Z,30.34
2018-05-31T12:39:59.429Z,30.35
2018-05-31T12:40:59.449Z,30.27
2018-05-31T12:41:59.444Z,30.43
2018-05-31T12:42:59.434Z,30.39
2018-05-31T12:43:59.501Z,30.27
2018-05-31T12:44:59.448Z,30.10
2018-05-31T12:45:59.450Z,30.07
2018-05-31T12:46:59.454Z,30.07
2018-05-31T12:47:59.451Z,30.01
2018-05-31T12:48:59.455Z,30.05
2018-05-31T12:49:59.544Z,30.02
2018-05-31T12:50:59.451Z,30.04
2018-05-31T12:51:59.455Z,30.07